sensor_id;sensor_type;location;lat;lon;timestamp;P1;durP1;ratioP1;P2;durP2;ratioP2
77581;SDS011;66726;52.388;9.986;2023-11-19T00:01:22;1.60;;;1.40;;
77581;SDS011;66726;52.388;9.986;2023-11-19T00:03:50;1.40;;;1.30;;
77581;SDS011;66726;52.388;9.986;2023-11-19T00:06:21;1.87;;;1.50;;
77581;SDS011;66726;52.388;9.986;2023-11-19T00:08:49;1.60;;;1.50;;
77581;SDS011;66726;52.388;9.986;2023-11-19T00:11:16;1.80;;;1.70;;
77581;SDS011;66726;52.388;9.986;2023-11-19T00:13:44;1.53;;;1.43;;
77581;SDS011;66726;52.388;9.986;2023-11-19T00:16:12;1.70;;;1.60;;
77581;SDS011;66726;52.388;9.986;2023-11-19T00:18:43;1.67;;;1.57;;
77581;SDS011;66726;52.388;9.986;2023-11-19T00:21:11;1.50;;;1.40;;
77581;SDS011;66726;52.388;9.986;2023-11-19T00:23:40;1.70;;;1.60;;
77581;SDS011;66726;52.388;9.986;2023-11-19T00:26:08;1.70;;;1.60;;
77581;SDS011;66726;52.388;9.986;2023-11-19T00:28:36;1.50;;;1.40;;
77581;SDS011;66726;52.388;9.986;2023-11-19T00:31:05;1.77;;;1.60;;
77581;SDS011;66726;52.388;9.986;2023-11-19T00:33:33;1.60;;;1.50;;
77581;SDS011;66726;52.388;9.986;2023-11-19T00:36:14;1.87;;;1.77;;
77581;SDS011;66726;52.388;9.986;2023-11-19T00:38:43;2.97;;;1.80;;
77581;SDS011;66726;52.388;9.986;2023-11-19T00:41:11;2.20;;;1.80;;
77581;SDS011;66726;52.388;9.986;2023-11-19T00:43:42;2.60;;;1.97;;
77581;SDS011;66726;52.388;9.986;2023-11-19T00:46:10;1.87;;;1.77;;
77581;SDS011;66726;52.388;9.986;2023-11-19T00:48:40;2.23;;;2.00;;
77581;SDS011;66726;52.388;9.986;2023-11-19T00:51:08;1.90;;;1.80;;
77581;SDS011;66726;52.388;9.986;2023-11-19T00:53:38;1.93;;;1.70;;
77581;SDS011;66726;52.388;9.986;2023-11-19T00:56:08;2.10;;;1.90;;
77581;SDS011;66726;52.388;9.986;2023-11-19T00:58:39;2.13;;;2.03;;
77581;SDS011;66726;52.388;9.986;2023-11-19T01:01:07;2.80;;;1.87;;
77581;SDS011;66726;52.388;9.986;2023-11-19T01:03:35;3.10;;;1.73;;
77581;SDS011;66726;52.388;9.986;2023-11-19T01:06:04;2.43;;;1.80;;
77581;SDS011;66726;52.388;9.986;2023-11-19T01:08:32;1.70;;;1.60;;
77581;SDS011;66726;52.388;9.986;2023-11-19T01:11:02;2.20;;;1.50;;
77581;SDS011;66726;52.388;9.986;2023-11-19T01:13:32;1.53;;;1.43;;
77581;SDS011;66726;52.388;9.986;2023-11-19T01:16:00;1.43;;;1.33;;
77581;SDS011;66726;52.388;9.986;2023-11-19T01:18:28;1.40;;;1.30;;
77581;SDS011;66726;52.388;9.986;2023-11-19T01:20:57;1.57;;;1.43;;
77581;SDS011;66726;52.388;9.986;2023-11-19T01:23:25;1.60;;;1.50;;
77581;SDS011;66726;52.388;9.986;2023-11-19T01:25:53;1.60;;;1.50;;
77581;SDS011;66726;52.388;9.986;2023-11-19T01:28:21;1.50;;;1.40;;
77581;SDS011;66726;52.388;9.986;2023-11-19T01:30:51;1.80;;;1.60;;
77581;SDS011;66726;52.388;9.986;2023-11-19T01:33:20;2.13;;;1.63;;
77581;SDS011;66726;52.388;9.986;2023-11-19T01:35:48;1.47;;;1.37;;
77581;SDS011;66726;52.388;9.986;2023-11-19T01:38:16;1.07;;;1.07;;
77581;SDS011;66726;52.388;9.986;2023-11-19T01:40:44;1.50;;;1.40;;
77581;SDS011;66726;52.388;9.986;2023-11-19T01:46:05;1.67;;;1.17;;
77581;SDS011;66726;52.388;9.986;2023-11-19T01:48:38;2.10;;;1.50;;
77581;SDS011;66726;52.388;9.986;2023-11-19T01:51:11;1.90;;;1.50;;
77581;SDS011;66726;52.388;9.986;2023-11-19T01:53:43;1.50;;;1.30;;
77581;SDS011;66726;52.388;9.986;2023-11-19T01:56:12;1.67;;;1.40;;
77581;SDS011;66726;52.388;9.986;2023-11-19T01:58:43;1.23;;;1.13;;
77581;SDS011;66726;52.388;9.986;2023-11-19T02:01:14;2.27;;;1.70;;
77581;SDS011;66726;52.388;9.986;2023-11-19T02:03:43;1.50;;;1.40;;
77581;SDS011;66726;52.388;9.986;2023-11-19T02:06:13;1.57;;;1.47;;
77581;SDS011;66726;52.388;9.986;2023-11-19T02:08:42;1.50;;;1.40;;
77581;SDS011;66726;52.388;9.986;2023-11-19T02:11:10;1.50;;;1.40;;
77581;SDS011;66726;52.388;9.986;2023-11-19T02:13:39;2.07;;;1.83;;
77581;SDS011;66726;52.388;9.986;2023-11-19T02:16:10;1.80;;;1.63;;
77581;SDS011;66726;52.388;9.986;2023-11-19T02:18:40;1.80;;;1.70;;
77581;SDS011;66726;52.388;9.986;2023-11-19T02:21:09;2.10;;;1.90;;
77581;SDS011;66726;52.388;9.986;2023-11-19T02:23:37;2.00;;;1.90;;
77581;SDS011;66726;52.388;9.986;2023-11-19T02:26:09;2.17;;;1.80;;
77581;SDS011;66726;52.388;9.986;2023-11-19T02:28:46;2.60;;;1.80;;
77581;SDS011;66726;52.388;9.986;2023-11-19T02:31:15;2.07;;;1.97;;
77581;SDS011;66726;52.388;9.986;2023-11-19T02:33:44;2.40;;;2.10;;
77581;SDS011;66726;52.388;9.986;2023-11-19T02:36:12;3.00;;;2.10;;
77581;SDS011;66726;52.388;9.986;2023-11-19T02:38:40;2.73;;;2.10;;
77581;SDS011;66726;52.388;9.986;2023-11-19T02:41:08;2.23;;;2.03;;
77581;SDS011;66726;52.388;9.986;2023-11-19T02:43:36;2.67;;;2.30;;
77581;SDS011;66726;52.388;9.986;2023-11-19T02:46:06;4.13;;;2.50;;
77581;SDS011;66726;52.388;9.986;2023-11-19T02:48:38;3.00;;;2.67;;
77581;SDS011;66726;52.388;9.986;2023-11-19T02:51:06;2.93;;;2.63;;
77581;SDS011;66726;52.388;9.986;2023-11-19T02:53:35;2.80;;;2.60;;
77581;SDS011;66726;52.388;9.986;2023-11-19T02:56:06;2.40;;;2.20;;
77581;SDS011;66726;52.388;9.986;2023-11-19T02:58:42;2.50;;;2.30;;
77581;SDS011;66726;52.388;9.986;2023-11-19T03:01:13;2.40;;;2.17;;
77581;SDS011;66726;52.388;9.986;2023-11-19T03:03:56;3.13;;;2.10;;
77581;SDS011;66726;52.388;9.986;2023-11-19T03:06:25;1.90;;;1.80;;
77581;SDS011;66726;52.388;9.986;2023-11-19T03:08:55;2.87;;;1.77;;
77581;SDS011;66726;52.388;9.986;2023-11-19T03:11:23;1.80;;;1.70;;
77581;SDS011;66726;52.388;9.986;2023-11-19T03:13:51;1.57;;;1.47;;
77581;SDS011;66726;52.388;9.986;2023-11-19T03:16:21;1.60;;;1.50;;
77581;SDS011;66726;52.388;9.986;2023-11-19T03:18:49;2.10;;;1.37;;
77581;SDS011;66726;52.388;9.986;2023-11-19T03:21:17;2.47;;;1.47;;
77581;SDS011;66726;52.388;9.986;2023-11-19T03:23:45;1.93;;;1.40;;
77581;SDS011;66726;52.388;9.986;2023-11-19T03:26:13;1.70;;;1.60;;
77581;SDS011;66726;52.388;9.986;2023-11-19T03:28:42;2.03;;;1.93;;
77581;SDS011;66726;52.388;9.986;2023-11-19T03:31:10;2.57;;;2.37;;
77581;SDS011;66726;52.388;9.986;2023-11-19T03:33:39;2.17;;;1.97;;
77581;SDS011;66726;52.388;9.986;2023-11-19T03:36:07;2.30;;;2.10;;
77581;SDS011;66726;52.388;9.986;2023-11-19T03:38:36;2.40;;;2.20;;
77581;SDS011;66726;52.388;9.986;2023-11-19T03:41:09;2.60;;;2.40;;
77581;SDS011;66726;52.388;9.986;2023-11-19T03:43:38;2.67;;;2.30;;
77581;SDS011;66726;52.388;9.986;2023-11-19T03:46:15;2.90;;;2.70;;
77581;SDS011;66726;52.388;9.986;2023-11-19T03:48:47;2.57;;;2.37;;
77581;SDS011;66726;52.388;9.986;2023-11-19T03:51:16;3.40;;;2.90;;
77581;SDS011;66726;52.388;9.986;2023-11-19T03:53:45;4.57;;;3.03;;
77581;SDS011;66726;52.388;9.986;2023-11-19T03:56:13;3.83;;;3.43;;
77581;SDS011;66726;52.388;9.986;2023-11-19T03:58:41;4.17;;;3.63;;
77581;SDS011;66726;52.388;9.986;2023-11-19T04:01:10;5.57;;;3.10;;
77581;SDS011;66726;52.388;9.986;2023-11-19T04:03:40;3.37;;;3.07;;
77581;SDS011;66726;52.388;9.986;2023-11-19T04:06:13;4.13;;;3.70;;
77581;SDS011;66726;52.388;9.986;2023-11-19T04:08:41;4.33;;;3.93;;
77581;SDS011;66726;52.388;9.986;2023-11-19T04:11:10;3.83;;;3.50;;
77581;SDS011;66726;52.388;9.986;2023-11-19T04:13:40;5.23;;;4.50;;
77581;SDS011;66726;52.388;9.986;2023-11-19T04:16:08;4.97;;;4.47;;
77581;SDS011;66726;52.388;9.986;2023-11-19T04:18:36;4.73;;;4.20;;
77581;SDS011;66726;52.388;9.986;2023-11-19T04:21:05;5.23;;;4.63;;
77581;SDS011;66726;52.388;9.986;2023-11-19T04:23:35;5.43;;;4.63;;
77581;SDS011;66726;52.388;9.986;2023-11-19T04:26:04;5.53;;;4.73;;
77581;SDS011;66726;52.388;9.986;2023-11-19T04:28:35;5.03;;;4.57;;
77581;SDS011;66726;52.388;9.986;2023-11-19T04:31:04;4.87;;;4.37;;
77581;SDS011;66726;52.388;9.986;2023-11-19T04:33:32;5.27;;;4.73;;
77581;SDS011;66726;52.388;9.986;2023-11-19T04:36:01;4.90;;;4.40;;
77581;SDS011;66726;52.388;9.986;2023-11-19T04:38:29;5.77;;;5.17;;
77581;SDS011;66726;52.388;9.986;2023-11-19T04:40:59;5.23;;;4.73;;
77581;SDS011;66726;52.388;9.986;2023-11-19T04:43:27;6.20;;;5.13;;
77581;SDS011;66726;52.388;9.986;2023-11-19T04:45:56;6.47;;;5.10;;
77581;SDS011;66726;52.388;9.986;2023-11-19T04:48:24;5.10;;;4.60;;
77581;SDS011;66726;52.388;9.986;2023-11-19T04:50:52;5.03;;;4.53;;
77581;SDS011;66726;52.388;9.986;2023-11-19T04:53:20;5.03;;;4.53;;
77581;SDS011;66726;52.388;9.986;2023-11-19T04:55:48;6.53;;;5.00;;
77581;SDS011;66726;52.388;9.986;2023-11-19T04:58:18;5.33;;;4.50;;
77581;SDS011;66726;52.388;9.986;2023-11-19T05:00:46;6.23;;;4.30;;
77581;SDS011;66726;52.388;9.986;2023-11-19T05:03:14;4.80;;;4.27;;
77581;SDS011;66726;52.388;9.986;2023-11-19T05:05:42;6.97;;;4.53;;
77581;SDS011;66726;52.388;9.986;2023-11-19T05:08:10;6.60;;;4.37;;
77581;SDS011;66726;52.388;9.986;2023-11-19T05:10:39;5.33;;;4.30;;
77581;SDS011;66726;52.388;9.986;2023-11-19T05:13:07;8.80;;;4.63;;
77581;SDS011;66726;52.388;9.986;2023-11-19T05:15:37;7.07;;;5.47;;
77581;SDS011;66726;52.388;9.986;2023-11-19T05:18:05;8.50;;;6.10;;
77581;SDS011;66726;52.388;9.986;2023-11-19T05:20:35;10.67;;;6.77;;
77581;SDS011;66726;52.388;9.986;2023-11-19T05:23:03;10.10;;;7.20;;
77581;SDS011;66726;52.388;9.986;2023-11-19T05:25:31;9.73;;;7.10;;
77581;SDS011;66726;52.388;9.986;2023-11-19T05:27:59;14.30;;;8.03;;
77581;SDS011;66726;52.388;9.986;2023-11-19T05:30:27;10.67;;;8.17;;
77581;SDS011;66726;52.388;9.986;2023-11-19T05:32:57;12.27;;;8.33;;
77581;SDS011;66726;52.388;9.986;2023-11-19T05:35:25;13.80;;;8.80;;
77581;SDS011;66726;52.388;9.986;2023-11-19T05:37:53;12.67;;;8.50;;
77581;SDS011;66726;52.388;9.986;2023-11-19T05:40:22;12.90;;;8.63;;
77581;SDS011;66726;52.388;9.986;2023-11-19T05:42:50;12.60;;;8.60;;
77581;SDS011;66726;52.388;9.986;2023-11-19T05:45:18;10.20;;;8.50;;
77581;SDS011;66726;52.388;9.986;2023-11-19T05:47:47;12.43;;;8.90;;
77581;SDS011;66726;52.388;9.986;2023-11-19T05:50:16;12.63;;;8.97;;
77581;SDS011;66726;52.388;9.986;2023-11-19T05:52:45;13.43;;;8.33;;
77581;SDS011;66726;52.388;9.986;2023-11-19T05:55:14;11.90;;;7.77;;
77581;SDS011;66726;52.388;9.986;2023-11-19T05:57:42;12.40;;;7.93;;
77581;SDS011;66726;52.388;9.986;2023-11-19T06:00:13;11.00;;;7.77;;
77581;SDS011;66726;52.388;9.986;2023-11-19T06:02:42;11.47;;;8.30;;
77581;SDS011;66726;52.388;9.986;2023-11-19T06:05:11;13.60;;;8.67;;
77581;SDS011;66726;52.388;9.986;2023-11-19T06:07:41;12.37;;;9.27;;
77581;SDS011;66726;52.388;9.986;2023-11-19T06:10:10;11.90;;;9.70;;
77581;SDS011;66726;52.388;9.986;2023-11-19T06:12:40;17.80;;;9.83;;
77581;SDS011;66726;52.388;9.986;2023-11-19T06:15:09;14.27;;;10.27;;
77581;SDS011;66726;52.388;9.986;2023-11-19T06:17:38;16.00;;;10.40;;
77581;SDS011;66726;52.388;9.986;2023-11-19T06:20:07;15.70;;;10.57;;
77581;SDS011;66726;52.388;9.986;2023-11-19T06:22:38;12.83;;;9.70;;
77581;SDS011;66726;52.388;9.986;2023-11-19T06:25:09;15.87;;;9.87;;
77581;SDS011;66726;52.388;9.986;2023-11-19T06:27:38;18.37;;;10.47;;
77581;SDS011;66726;52.388;9.986;2023-11-19T06:30:07;13.80;;;10.67;;
77581;SDS011;66726;52.388;9.986;2023-11-19T06:32:36;16.90;;;12.00;;
77581;SDS011;66726;52.388;9.986;2023-11-19T06:35:05;16.47;;;11.23;;
77581;SDS011;66726;52.388;9.986;2023-11-19T06:37:35;15.23;;;11.43;;
77581;SDS011;66726;52.388;9.986;2023-11-19T06:40:06;17.70;;;11.77;;
77581;SDS011;66726;52.388;9.986;2023-11-19T06:42:37;13.47;;;11.77;;
77581;SDS011;66726;52.388;9.986;2023-11-19T06:45:06;20.77;;;13.03;;
77581;SDS011;66726;52.388;9.986;2023-11-19T06:47:35;21.07;;;13.27;;
77581;SDS011;66726;52.388;9.986;2023-11-19T06:50:04;16.03;;;10.90;;
77581;SDS011;66726;52.388;9.986;2023-11-19T06:52:35;22.33;;;12.60;;
77581;SDS011;66726;52.388;9.986;2023-11-19T06:55:04;22.33;;;12.03;;
77581;SDS011;66726;52.388;9.986;2023-11-19T06:57:34;22.20;;;12.20;;
77581;SDS011;66726;52.388;9.986;2023-11-19T07:00:05;24.57;;;12.40;;
77581;SDS011;66726;52.388;9.986;2023-11-19T07:02:35;18.37;;;11.57;;
77581;SDS011;66726;52.388;9.986;2023-11-19T07:05:03;22.23;;;12.13;;
77581;SDS011;66726;52.388;9.986;2023-11-19T07:07:32;22.53;;;10.93;;
77581;SDS011;66726;52.388;9.986;2023-11-19T07:10:01;21.37;;;11.50;;
77581;SDS011;66726;52.388;9.986;2023-11-19T07:12:31;26.83;;;11.67;;
77581;SDS011;66726;52.388;9.986;2023-11-19T07:15:00;25.57;;;10.93;;
77581;SDS011;66726;52.388;9.986;2023-11-19T07:17:29;24.90;;;9.93;;
77581;SDS011;66726;52.388;9.986;2023-11-19T07:19:58;25.47;;;10.13;;
77581;SDS011;66726;52.388;9.986;2023-11-19T07:22:26;23.97;;;9.07;;
77581;SDS011;66726;52.388;9.986;2023-11-19T07:24:56;26.50;;;8.63;;
77581;SDS011;66726;52.388;9.986;2023-11-19T07:27:25;21.80;;;8.50;;
77581;SDS011;66726;52.388;9.986;2023-11-19T07:29:53;26.60;;;7.73;;
77581;SDS011;66726;52.388;9.986;2023-11-19T07:32:23;30.40;;;8.20;;
77581;SDS011;66726;52.388;9.986;2023-11-19T07:34:52;23.87;;;7.57;;
77581;SDS011;66726;52.388;9.986;2023-11-19T07:37:20;26.10;;;7.27;;
77581;SDS011;66726;52.388;9.986;2023-11-19T07:39:48;24.73;;;7.50;;
77581;SDS011;66726;52.388;9.986;2023-11-19T07:42:17;21.50;;;6.30;;
77581;SDS011;66726;52.388;9.986;2023-11-19T07:44:45;22.40;;;7.17;;
77581;SDS011;66726;52.388;9.986;2023-11-19T07:47:13;28.03;;;6.57;;
77581;SDS011;66726;52.388;9.986;2023-11-19T07:49:43;28.57;;;5.90;;
77581;SDS011;66726;52.388;9.986;2023-11-19T07:52:11;24.13;;;5.80;;
77581;SDS011;66726;52.388;9.986;2023-11-19T07:54:43;29.97;;;6.20;;
77581;SDS011;66726;52.388;9.986;2023-11-19T07:57:11;21.80;;;6.00;;
77581;SDS011;66726;52.388;9.986;2023-11-19T07:59:39;29.47;;;5.80;;
77581;SDS011;66726;52.388;9.986;2023-11-19T08:02:08;24.53;;;5.77;;
77581;SDS011;66726;52.388;9.986;2023-11-19T08:04:36;17.20;;;4.77;;
77581;SDS011;66726;52.388;9.986;2023-11-19T08:07:07;21.33;;;4.90;;
77581;SDS011;66726;52.388;9.986;2023-11-19T08:09:36;20.00;;;5.37;;
77581;SDS011;66726;52.388;9.986;2023-11-19T08:12:05;26.37;;;5.97;;
77581;SDS011;66726;52.388;9.986;2023-11-19T08:14:35;23.03;;;5.63;;
77581;SDS011;66726;52.388;9.986;2023-11-19T08:17:03;37.60;;;6.23;;
77581;SDS011;66726;52.388;9.986;2023-11-19T08:19:32;33.20;;;8.10;;
77581;SDS011;66726;52.388;9.986;2023-11-19T08:22:00;37.33;;;15.67;;
77581;SDS011;66726;52.388;9.986;2023-11-19T08:24:31;36.03;;;10.77;;
77581;SDS011;66726;52.388;9.986;2023-11-19T08:26:59;27.50;;;7.10;;
77581;SDS011;66726;52.388;9.986;2023-11-19T08:29:28;27.07;;;9.20;;
77581;SDS011;66726;52.388;9.986;2023-11-19T08:31:57;23.93;;;7.57;;
77581;SDS011;66726;52.388;9.986;2023-11-19T08:34:28;25.43;;;7.23;;
77581;SDS011;66726;52.388;9.986;2023-11-19T08:36:57;21.47;;;5.53;;
77581;SDS011;66726;52.388;9.986;2023-11-19T08:39:25;26.80;;;6.07;;
77581;SDS011;66726;52.388;9.986;2023-11-19T08:41:55;31.33;;;8.20;;
77581;SDS011;66726;52.388;9.986;2023-11-19T08:44:24;25.37;;;6.87;;
77581;SDS011;66726;52.388;9.986;2023-11-19T08:46:53;22.07;;;6.17;;
77581;SDS011;66726;52.388;9.986;2023-11-19T08:49:21;34.10;;;7.63;;
77581;SDS011;66726;52.388;9.986;2023-11-19T08:51:49;24.77;;;7.10;;
77581;SDS011;66726;52.388;9.986;2023-11-19T08:54:17;31.73;;;6.57;;
77581;SDS011;66726;52.388;9.986;2023-11-19T08:56:46;27.50;;;6.33;;
77581;SDS011;66726;52.388;9.986;2023-11-19T08:59:16;36.83;;;8.20;;
77581;SDS011;66726;52.388;9.986;2023-11-19T09:01:45;26.87;;;6.63;;
77581;SDS011;66726;52.388;9.986;2023-11-19T09:04:13;27.07;;;6.70;;
77581;SDS011;66726;52.388;9.986;2023-11-19T09:06:42;20.50;;;5.50;;
77581;SDS011;66726;52.388;9.986;2023-11-19T09:09:10;24.93;;;6.40;;
77581;SDS011;66726;52.388;9.986;2023-11-19T09:11:39;21.27;;;5.97;;
77581;SDS011;66726;52.388;9.986;2023-11-19T09:14:07;22.37;;;5.70;;
77581;SDS011;66726;52.388;9.986;2023-11-19T09:16:37;30.90;;;6.27;;
77581;SDS011;66726;52.388;9.986;2023-11-19T09:19:05;24.90;;;5.87;;
77581;SDS011;66726;52.388;9.986;2023-11-19T09:21:33;25.37;;;6.27;;
77581;SDS011;66726;52.388;9.986;2023-11-19T09:24:04;28.93;;;5.93;;
77581;SDS011;66726;52.388;9.986;2023-11-19T09:26:34;30.13;;;6.87;;
77581;SDS011;66726;52.388;9.986;2023-11-19T09:29:02;35.60;;;6.63;;
77581;SDS011;66726;52.388;9.986;2023-11-19T09:31:30;23.97;;;5.93;;
77581;SDS011;66726;52.388;9.986;2023-11-19T09:34:00;25.03;;;6.00;;
77581;SDS011;66726;52.388;9.986;2023-11-19T09:36:28;27.87;;;6.27;;
77581;SDS011;66726;52.388;9.986;2023-11-19T09:38:57;28.03;;;6.70;;
77581;SDS011;66726;52.388;9.986;2023-11-19T09:41:26;27.97;;;5.73;;
77581;SDS011;66726;52.388;9.986;2023-11-19T09:43:55;25.13;;;6.73;;
77581;SDS011;66726;52.388;9.986;2023-11-19T09:46:23;36.40;;;6.90;;
77581;SDS011;66726;52.388;9.986;2023-11-19T09:48:54;27.10;;;6.77;;
77581;SDS011;66726;52.388;9.986;2023-11-19T09:51:27;28.97;;;6.23;;
77581;SDS011;66726;52.388;9.986;2023-11-19T09:53:55;21.83;;;5.80;;
77581;SDS011;66726;52.388;9.986;2023-11-19T09:56:24;31.07;;;6.67;;
77581;SDS011;66726;52.388;9.986;2023-11-19T09:58:54;25.07;;;6.13;;
77581;SDS011;66726;52.388;9.986;2023-11-19T10:01:22;32.13;;;7.20;;
77581;SDS011;66726;52.388;9.986;2023-11-19T10:03:55;25.27;;;6.27;;
77581;SDS011;66726;52.388;9.986;2023-11-19T10:06:24;31.03;;;6.07;;
77581;SDS011;66726;52.388;9.986;2023-11-19T10:08:54;29.50;;;5.90;;
77581;SDS011;66726;52.388;9.986;2023-11-19T10:11:23;28.20;;;6.53;;
77581;SDS011;66726;52.388;9.986;2023-11-19T10:13:52;26.33;;;5.67;;
77581;SDS011;66726;52.388;9.986;2023-11-19T10:16:21;31.30;;;6.97;;
77581;SDS011;66726;52.388;9.986;2023-11-19T10:18:57;31.57;;;6.33;;
77581;SDS011;66726;52.388;9.986;2023-11-19T10:21:27;24.13;;;5.73;;
77581;SDS011;66726;52.388;9.986;2023-11-19T10:23:59;28.60;;;6.00;;
77581;SDS011;66726;52.388;9.986;2023-11-19T10:26:27;23.33;;;5.60;;
77581;SDS011;66726;52.388;9.986;2023-11-19T10:28:56;23.83;;;5.20;;
77581;SDS011;66726;52.388;9.986;2023-11-19T10:31:24;25.30;;;6.20;;
77581;SDS011;66726;52.388;9.986;2023-11-19T10:33:53;27.97;;;6.40;;
77581;SDS011;66726;52.388;9.986;2023-11-19T10:36:21;30.13;;;6.00;;
77581;SDS011;66726;52.388;9.986;2023-11-19T10:38:53;23.90;;;6.00;;
77581;SDS011;66726;52.388;9.986;2023-11-19T10:41:26;23.03;;;5.60;;
77581;SDS011;66726;52.388;9.986;2023-11-19T10:43:54;26.60;;;5.87;;
77581;SDS011;66726;52.388;9.986;2023-11-19T10:46:23;20.93;;;4.77;;
77581;SDS011;66726;52.388;9.986;2023-11-19T10:49:06;27.77;;;5.20;;
77581;SDS011;66726;52.388;9.986;2023-11-19T10:51:34;24.43;;;5.13;;
77581;SDS011;66726;52.388;9.986;2023-11-19T10:54:05;38.97;;;11.60;;
77581;SDS011;66726;52.388;9.986;2023-11-19T10:56:34;31.40;;;5.77;;
77581;SDS011;66726;52.388;9.986;2023-11-19T10:59:02;23.20;;;5.70;;
77581;SDS011;66726;52.388;9.986;2023-11-19T11:01:50;21.93;;;5.53;;
77581;SDS011;66726;52.388;9.986;2023-11-19T11:04:23;24.43;;;5.37;;
77581;SDS011;66726;52.388;9.986;2023-11-19T11:06:54;29.73;;;6.20;;
77581;SDS011;66726;52.388;9.986;2023-11-19T11:09:26;22.10;;;6.00;;
77581;SDS011;66726;52.388;9.986;2023-11-19T11:11:55;21.87;;;5.40;;
77581;SDS011;66726;52.388;9.986;2023-11-19T11:14:25;21.70;;;5.00;;
77581;SDS011;66726;52.388;9.986;2023-11-19T11:16:55;24.90;;;5.80;;
77581;SDS011;66726;52.388;9.986;2023-11-19T11:19:25;22.10;;;5.13;;
77581;SDS011;66726;52.388;9.986;2023-11-19T11:21:54;24.63;;;5.93;;
77581;SDS011;66726;52.388;9.986;2023-11-19T11:27:59;23.20;;;4.73;;
77581;SDS011;66726;52.388;9.986;2023-11-19T11:31:01;24.87;;;7.40;;
77581;SDS011;66726;52.388;9.986;2023-11-19T11:33:59;28.70;;;6.17;;
77581;SDS011;66726;52.388;9.986;2023-11-19T11:37:03;25.63;;;5.57;;
77581;SDS011;66726;52.388;9.986;2023-11-19T11:39:43;27.70;;;5.10;;
77581;SDS011;66726;52.388;9.986;2023-11-19T11:42:34;23.33;;;5.93;;
77581;SDS011;66726;52.388;9.986;2023-11-19T11:45:04;27.37;;;5.57;;
77581;SDS011;66726;52.388;9.986;2023-11-19T11:53:31;24.50;;;5.93;;
77581;SDS011;66726;52.388;9.986;2023-11-19T11:56:03;27.43;;;6.37;;
77581;SDS011;66726;52.388;9.986;2023-11-19T11:58:37;26.00;;;6.27;;
77581;SDS011;66726;52.388;9.986;2023-11-19T12:01:05;25.00;;;6.03;;
77581;SDS011;66726;52.388;9.986;2023-11-19T12:03:34;22.03;;;6.27;;
77581;SDS011;66726;52.388;9.986;2023-11-19T12:06:02;27.23;;;5.97;;
77581;SDS011;66726;52.388;9.986;2023-11-19T12:08:31;29.77;;;5.97;;
77581;SDS011;66726;52.388;9.986;2023-11-19T12:11:19;25.30;;;6.23;;
77581;SDS011;66726;52.388;9.986;2023-11-19T12:13:54;27.10;;;6.33;;
77581;SDS011;66726;52.388;9.986;2023-11-19T12:16:25;27.53;;;6.00;;
77581;SDS011;66726;52.388;9.986;2023-11-19T12:18:55;33.40;;;6.97;;
77581;SDS011;66726;52.388;9.986;2023-11-19T12:21:30;27.43;;;6.37;;
77581;SDS011;66726;52.388;9.986;2023-11-19T12:23:59;30.10;;;6.07;;
77581;SDS011;66726;52.388;9.986;2023-11-19T12:26:34;27.33;;;6.50;;
77581;SDS011;66726;52.388;9.986;2023-11-19T12:29:08;30.13;;;5.97;;
77581;SDS011;66726;52.388;9.986;2023-11-19T12:31:36;34.93;;;7.10;;
77581;SDS011;66726;52.388;9.986;2023-11-19T12:34:06;23.90;;;7.10;;
77581;SDS011;66726;52.388;9.986;2023-11-19T12:36:39;29.60;;;6.10;;
77581;SDS011;66726;52.388;9.986;2023-11-19T12:39:09;30.93;;;9.37;;
77581;SDS011;66726;52.388;9.986;2023-11-19T12:41:49;29.80;;;6.53;;
77581;SDS011;66726;52.388;9.986;2023-11-19T12:44:22;25.43;;;5.30;;
77581;SDS011;66726;52.388;9.986;2023-11-19T12:47:00;30.37;;;6.20;;
77581;SDS011;66726;52.388;9.986;2023-11-19T12:49:30;25.37;;;6.17;;
77581;SDS011;66726;52.388;9.986;2023-11-19T12:51:58;23.53;;;5.87;;
77581;SDS011;66726;52.388;9.986;2023-11-19T12:54:33;28.87;;;7.07;;
77581;SDS011;66726;52.388;9.986;2023-11-19T12:57:04;23.77;;;5.93;;
77581;SDS011;66726;52.388;9.986;2023-11-19T12:59:33;21.20;;;5.23;;
77581;SDS011;66726;52.388;9.986;2023-11-19T13:02:02;25.93;;;6.70;;
77581;SDS011;66726;52.388;9.986;2023-11-19T13:04:32;30.97;;;6.33;;
77581;SDS011;66726;52.388;9.986;2023-11-19T13:07:01;25.67;;;8.17;;
77581;SDS011;66726;52.388;9.986;2023-11-19T13:09:31;23.77;;;6.57;;
77581;SDS011;66726;52.388;9.986;2023-11-19T13:12:11;26.90;;;7.10;;
77581;SDS011;66726;52.388;9.986;2023-11-19T13:14:43;28.33;;;7.70;;
77581;SDS011;66726;52.388;9.986;2023-11-19T13:17:13;25.47;;;6.73;;
77581;SDS011;66726;52.388;9.986;2023-11-19T13:19:42;26.23;;;6.87;;
77581;SDS011;66726;52.388;9.986;2023-11-19T13:22:10;28.30;;;6.10;;
77581;SDS011;66726;52.388;9.986;2023-11-19T13:24:38;20.23;;;5.53;;
77581;SDS011;66726;52.388;9.986;2023-11-19T13:27:08;24.23;;;4.57;;
77581;SDS011;66726;52.388;9.986;2023-11-19T13:29:37;22.30;;;4.90;;
77581;SDS011;66726;52.388;9.986;2023-11-19T13:32:06;19.80;;;5.37;;
77581;SDS011;66726;52.388;9.986;2023-11-19T13:34:35;23.53;;;5.77;;
77581;SDS011;66726;52.388;9.986;2023-11-19T13:37:03;16.47;;;5.20;;
77581;SDS011;66726;52.388;9.986;2023-11-19T13:39:31;17.67;;;4.97;;
77581;SDS011;66726;52.388;9.986;2023-11-19T13:42:00;23.40;;;4.87;;
77581;SDS011;66726;52.388;9.986;2023-11-19T13:44:31;20.90;;;5.07;;
77581;SDS011;66726;52.388;9.986;2023-11-19T13:47:00;21.83;;;4.97;;
77581;SDS011;66726;52.388;9.986;2023-11-19T13:49:30;20.40;;;5.30;;
77581;SDS011;66726;52.388;9.986;2023-11-19T13:51:58;25.23;;;5.63;;
77581;SDS011;66726;52.388;9.986;2023-11-19T13:54:26;18.57;;;5.80;;
77581;SDS011;66726;52.388;9.986;2023-11-19T13:56:55;22.47;;;5.70;;
77581;SDS011;66726;52.388;9.986;2023-11-19T13:59:24;26.63;;;5.87;;
77581;SDS011;66726;52.388;9.986;2023-11-19T14:01:53;25.73;;;5.80;;
77581;SDS011;66726;52.388;9.986;2023-11-19T14:04:21;23.20;;;5.50;;
77581;SDS011;66726;52.388;9.986;2023-11-19T14:06:51;20.33;;;5.13;;
77581;SDS011;66726;52.388;9.986;2023-11-19T14:09:21;21.07;;;5.10;;
77581;SDS011;66726;52.388;9.986;2023-11-19T14:11:49;25.93;;;5.70;;
77581;SDS011;66726;52.388;9.986;2023-11-19T14:14:18;25.77;;;5.57;;
77581;SDS011;66726;52.388;9.986;2023-11-19T14:16:46;22.47;;;5.17;;
77581;SDS011;66726;52.388;9.986;2023-11-19T14:19:14;21.37;;;4.90;;
77581;SDS011;66726;52.388;9.986;2023-11-19T14:21:43;26.90;;;5.33;;
77581;SDS011;66726;52.388;9.986;2023-11-19T14:24:13;21.40;;;5.10;;
77581;SDS011;66726;52.388;9.986;2023-11-19T14:26:41;21.37;;;5.27;;
77581;SDS011;66726;52.388;9.986;2023-11-19T14:29:09;26.27;;;5.33;;
77581;SDS011;66726;52.388;9.986;2023-11-19T14:31:37;20.87;;;5.50;;
77581;SDS011;66726;52.388;9.986;2023-11-19T14:34:06;25.53;;;5.27;;
77581;SDS011;66726;52.388;9.986;2023-11-19T14:36:34;23.47;;;6.80;;
77581;SDS011;66726;52.388;9.986;2023-11-19T14:39:02;25.13;;;5.93;;
77581;SDS011;66726;52.388;9.986;2023-11-19T14:41:32;25.07;;;6.27;;
77581;SDS011;66726;52.388;9.986;2023-11-19T14:44:00;27.80;;;6.10;;
77581;SDS011;66726;52.388;9.986;2023-11-19T14:46:29;26.70;;;5.57;;
77581;SDS011;66726;52.388;9.986;2023-11-19T14:48:57;21.70;;;5.30;;
77581;SDS011;66726;52.388;9.986;2023-11-19T14:51:26;25.47;;;5.97;;
77581;SDS011;66726;52.388;9.986;2023-11-19T14:53:54;25.33;;;5.13;;
77581;SDS011;66726;52.388;9.986;2023-11-19T14:56:23;17.97;;;5.00;;
77581;SDS011;66726;52.388;9.986;2023-11-19T14:58:52;22.70;;;5.13;;
77581;SDS011;66726;52.388;9.986;2023-11-19T15:01:20;21.90;;;5.83;;
77581;SDS011;66726;52.388;9.986;2023-11-19T15:03:49;24.47;;;5.00;;
77581;SDS011;66726;52.388;9.986;2023-11-19T15:06:22;21.20;;;5.53;;